Aeroporto :
LOGIN :

Iscrizione | Disclaimer

   EN    FR    IT 

 










Sommario :    VFR   VFR Marginale   IFR   IFR Intensivo   IFR Molto Intensivo
Visibilità : 
Base nubi : 
>= 8 km
>= 3000ft
5 / 8 km
1000 / 3000 ft
1500m / 5 km
500 / 1000 ft
800 / 1500m
200 / 500 ft
< 800m
< 200 ft
Simboli :   Temporali  Nebbia  Neve Forte  Precipitazioni Forti  Vento > 20 kt
SIGMETs :   Varie  Temporali  Ghiacco  Turbolenza  Onda orograficha  Ceneri Vulcaniche







- Altitudine del aeroporto : 83 ft
- Codice IATA : LHR
- Carte del aeroporto


EGLL - London Heathrow

ULTIMO METAR :
  • 211720Z AUTO 24007KT 9999 NCD 13/08 Q1028 NOSIG

METARs OBSOLETI :
  • 211650Z AUTO 23008KT 200V260 9999 NCD 14/08 Q1028 NOSIG
  • 211620Z AUTO 23007KT 9999 NCD 15/08 Q1027 NOSIG
  • 211550Z AUTO 23007KT 9999 NCD 15/08 Q1027 NOSIG
  • 211520Z AUTO 24007KT 9999 NCD 15/08 Q1027 NOSIG
  • 211450Z AUTO 25009KT 9999 NCD 15/09 Q1027 NOSIG

TAF TAF EGLL
Valido dal 21 a 18 ore il 23 a 00 ore UTC


211654Z 2118/2224 22005KT 9999 FEW020
BECMG 2119/2122 BKN008
PROB40
TEMPO 2122/2124 5000 BR BKN004
BECMG 2200/2203 3000 BR BKN003
PROB30 2202/2210 0400 FG BKN000
BECMG 2210/2212 9999 NSW FEW012
BECMG 2221/2224 6000 BKN008
Nessun NOTAM noto per questo aeroporto.



MetMap, La meteo Aeronautica in un colpo d'occhio ! - Copyright ORBIFLY Dicembre 2007 - Disclaimer

ORBIFLY MET'MAP TEAM :

Programmazione e sviluppo : Alexandra Zaïnal
Concezione e sviluppo : Baudouin d'Aumeries
Co-Programmazione e sviluppo : Marc-Olivier Méhu
Supporto tecnico e logistico : Manuel Goepfert
Aiuto per la traduzione : Arnaldo La Scala

Contatto : metmap@orbifly.com




FONTI E CREDITI :

   NOAA